sensor_id;sensor_type;location;lat;lon;timestamp;P1;durP1;ratioP1;P2;durP2;ratioP2
8187;SDS011;4135;49.184;9.722;2023-05-07T00:00:13;2.47;;;1.85;;
8187;SDS011;4135;49.184;9.722;2023-05-07T00:02:45;1.85;;;1.73;;
8187;SDS011;4135;49.184;9.722;2023-05-07T00:05:14;2.38;;;1.35;;
8187;SDS011;4135;49.184;9.722;2023-05-07T00:07:44;2.38;;;1.65;;
8187;SDS011;4135;49.184;9.722;2023-05-07T00:10:14;2.28;;;1.52;;
8187;SDS011;4135;49.184;9.722;2023-05-07T00:12:43;1.92;;;1.67;;
8187;SDS011;4135;49.184;9.722;2023-05-07T00:15:13;3.47;;;2.08;;
8187;SDS011;4135;49.184;9.722;2023-05-07T00:17:43;2.13;;;1.45;;
8187;SDS011;4135;49.184;9.722;2023-05-07T00:20:12;5.95;;;1.83;;
8187;SDS011;4135;49.184;9.722;2023-05-07T00:22:42;1.45;;;1.30;;
8187;SDS011;4135;49.184;9.722;2023-05-07T00:25:11;2.58;;;1.65;;
8187;SDS011;4135;49.184;9.722;2023-05-07T00:27:41;5.00;;;1.90;;
8187;SDS011;4135;49.184;9.722;2023-05-07T00:30:10;2.33;;;2.13;;
8187;SDS011;4135;49.184;9.722;2023-05-07T00:32:40;2.30;;;1.90;;
8187;SDS011;4135;49.184;9.722;2023-05-07T00:35:10;2.78;;;1.63;;
8187;SDS011;4135;49.184;9.722;2023-05-07T00:37:39;1.90;;;1.85;;
8187;SDS011;4135;49.184;9.722;2023-05-07T00:40:09;2.13;;;1.95;;
8187;SDS011;4135;49.184;9.722;2023-05-07T00:42:39;2.45;;;2.25;;
8187;SDS011;4135;49.184;9.722;2023-05-07T00:45:08;3.35;;;2.10;;
8187;SDS011;4135;49.184;9.722;2023-05-07T00:47:40;2.80;;;2.13;;
8187;SDS011;4135;49.184;9.722;2023-05-07T00:50:10;3.58;;;1.92;;
8187;SDS011;4135;49.184;9.722;2023-05-07T00:52:41;4.20;;;2.25;;
8187;SDS011;4135;49.184;9.722;2023-05-07T00:55:11;3.53;;;2.20;;
8187;SDS011;4135;49.184;9.722;2023-05-07T00:57:43;5.80;;;2.45;;
8187;SDS011;4135;49.184;9.722;2023-05-07T01:00:14;3.30;;;2.13;;
8187;SDS011;4135;49.184;9.722;2023-05-07T01:02:43;3.38;;;2.10;;
8187;SDS011;4135;49.184;9.722;2023-05-07T01:05:14;3.00;;;2.08;;
8187;SDS011;4135;49.184;9.722;2023-05-07T01:07:45;4.38;;;2.47;;
8187;SDS011;4135;49.184;9.722;2023-05-07T01:10:16;7.05;;;2.75;;
8187;SDS011;4135;49.184;9.722;2023-05-07T01:12:46;2.60;;;2.25;;
8187;SDS011;4135;49.184;9.722;2023-05-07T01:15:17;4.30;;;2.40;;
8187;SDS011;4135;49.184;9.722;2023-05-07T01:17:47;3.85;;;2.28;;
8187;SDS011;4135;49.184;9.722;2023-05-07T01:20:17;2.75;;;1.90;;
8187;SDS011;4135;49.184;9.722;2023-05-07T01:22:47;2.53;;;2.20;;
8187;SDS011;4135;49.184;9.722;2023-05-07T01:25:18;2.42;;;2.22;;
8187;SDS011;4135;49.184;9.722;2023-05-07T01:27:47;2.58;;;2.20;;
8187;SDS011;4135;49.184;9.722;2023-05-07T01:30:17;1.33;;;1.30;;
8187;SDS011;4135;49.184;9.722;2023-05-07T01:32:51;2.60;;;1.88;;
8187;SDS011;4135;49.184;9.722;2023-05-07T01:35:27;2.22;;;1.98;;
8187;SDS011;4135;49.184;9.722;2023-05-07T01:37:59;6.28;;;1.98;;
8187;SDS011;4135;49.184;9.722;2023-05-07T01:40:30;2.95;;;2.15;;
8187;SDS011;4135;49.184;9.722;2023-05-07T01:43:00;4.70;;;1.75;;
8187;SDS011;4135;49.184;9.722;2023-05-07T01:45:31;3.72;;;2.05;;
8187;SDS011;4135;49.184;9.722;2023-05-07T01:48:03;3.28;;;1.77;;
8187;SDS011;4135;49.184;9.722;2023-05-07T01:50:33;3.55;;;1.90;;
8187;SDS011;4135;49.184;9.722;2023-05-07T01:53:03;3.38;;;2.33;;
8187;SDS011;4135;49.184;9.722;2023-05-07T01:55:32;3.33;;;2.65;;
8187;SDS011;4135;49.184;9.722;2023-05-07T01:58:02;3.53;;;2.28;;
8187;SDS011;4135;49.184;9.722;2023-05-07T02:00:32;3.53;;;2.28;;
8187;SDS011;4135;49.184;9.722;2023-05-07T02:03:02;4.57;;;2.63;;
8187;SDS011;4135;49.184;9.722;2023-05-07T02:05:31;5.78;;;2.78;;
8187;SDS011;4135;49.184;9.722;2023-05-07T02:08:01;4.35;;;2.33;;
8187;SDS011;4135;49.184;9.722;2023-05-07T02:10:30;6.95;;;2.50;;
8187;SDS011;4135;49.184;9.722;2023-05-07T02:13:00;5.30;;;2.65;;
8187;SDS011;4135;49.184;9.722;2023-05-07T02:15:30;4.25;;;3.10;;
8187;SDS011;4135;49.184;9.722;2023-05-07T02:18:01;2.83;;;2.15;;
8187;SDS011;4135;49.184;9.722;2023-05-07T02:20:32;4.15;;;2.38;;
8187;SDS011;4135;49.184;9.722;2023-05-07T02:23:02;3.70;;;2.20;;
8187;SDS011;4135;49.184;9.722;2023-05-07T02:25:31;2.40;;;1.90;;
8187;SDS011;4135;49.184;9.722;2023-05-07T02:28:01;3.15;;;2.15;;
8187;SDS011;4135;49.184;9.722;2023-05-07T02:30:31;3.95;;;1.85;;
8187;SDS011;4135;49.184;9.722;2023-05-07T02:33:00;3.75;;;2.00;;
8187;SDS011;4135;49.184;9.722;2023-05-07T02:35:30;3.35;;;2.08;;
8187;SDS011;4135;49.184;9.722;2023-05-07T02:37:59;3.35;;;2.22;;
8187;SDS011;4135;49.184;9.722;2023-05-07T02:40:29;2.45;;;1.85;;
8187;SDS011;4135;49.184;9.722;2023-05-07T02:42:59;3.08;;;2.38;;
8187;SDS011;4135;49.184;9.722;2023-05-07T02:45:28;2.33;;;2.05;;
8187;SDS011;4135;49.184;9.722;2023-05-07T02:47:58;3.45;;;2.25;;
8187;SDS011;4135;49.184;9.722;2023-05-07T02:50:27;3.17;;;2.38;;
8187;SDS011;4135;49.184;9.722;2023-05-07T02:52:57;4.93;;;2.08;;
8187;SDS011;4135;49.184;9.722;2023-05-07T02:55:27;2.78;;;1.60;;
8187;SDS011;4135;49.184;9.722;2023-05-07T02:57:56;3.25;;;2.58;;
8187;SDS011;4135;49.184;9.722;2023-05-07T03:00:26;3.20;;;1.77;;
8187;SDS011;4135;49.184;9.722;2023-05-07T03:02:55;6.95;;;2.20;;
8187;SDS011;4135;49.184;9.722;2023-05-07T03:05:25;4.70;;;1.70;;
8187;SDS011;4135;49.184;9.722;2023-05-07T03:07:54;2.35;;;2.05;;
8187;SDS011;4135;49.184;9.722;2023-05-07T03:10:24;4.35;;;2.53;;
8187;SDS011;4135;49.184;9.722;2023-05-07T03:12:53;2.65;;;2.05;;
8187;SDS011;4135;49.184;9.722;2023-05-07T03:15:23;3.17;;;2.30;;
8187;SDS011;4135;49.184;9.722;2023-05-07T03:17:52;2.55;;;2.13;;
8187;SDS011;4135;49.184;9.722;2023-05-07T03:20:22;2.42;;;1.90;;
8187;SDS011;4135;49.184;9.722;2023-05-07T03:22:51;2.15;;;1.90;;
8187;SDS011;4135;49.184;9.722;2023-05-07T03:25:21;3.17;;;2.20;;
8187;SDS011;4135;49.184;9.722;2023-05-07T03:27:56;3.83;;;2.20;;
8187;SDS011;4135;49.184;9.722;2023-05-07T03:30:25;2.05;;;1.95;;
8187;SDS011;4135;49.184;9.722;2023-05-07T03:32:55;2.95;;;2.03;;
8187;SDS011;4135;49.184;9.722;2023-05-07T03:35:25;3.78;;;2.40;;
8187;SDS011;4135;49.184;9.722;2023-05-07T03:37:55;3.67;;;2.33;;
8187;SDS011;4135;49.184;9.722;2023-05-07T03:40:24;3.50;;;2.28;;
8187;SDS011;4135;49.184;9.722;2023-05-07T03:42:54;3.83;;;2.50;;
8187;SDS011;4135;49.184;9.722;2023-05-07T03:45:23;2.17;;;1.85;;
8187;SDS011;4135;49.184;9.722;2023-05-07T03:47:53;3.65;;;1.92;;
8187;SDS011;4135;49.184;9.722;2023-05-07T03:50:22;3.72;;;2.50;;
8187;SDS011;4135;49.184;9.722;2023-05-07T03:52:52;2.83;;;2.00;;
8187;SDS011;4135;49.184;9.722;2023-05-07T03:55:21;3.95;;;2.40;;
8187;SDS011;4135;49.184;9.722;2023-05-07T03:57:51;3.35;;;2.25;;
8187;SDS011;4135;49.184;9.722;2023-05-07T04:00:21;2.67;;;1.92;;
8187;SDS011;4135;49.184;9.722;2023-05-07T04:02:51;4.70;;;2.35;;
8187;SDS011;4135;49.184;9.722;2023-05-07T04:05:20;6.38;;;2.80;;
8187;SDS011;4135;49.184;9.722;2023-05-07T04:07:50;5.05;;;2.33;;
8187;SDS011;4135;49.184;9.722;2023-05-07T04:10:19;5.47;;;2.65;;
8187;SDS011;4135;49.184;9.722;2023-05-07T04:12:49;5.13;;;2.50;;
8187;SDS011;4135;49.184;9.722;2023-05-07T04:15:18;4.07;;;2.80;;
8187;SDS011;4135;49.184;9.722;2023-05-07T04:17:48;7.10;;;2.70;;
8187;SDS011;4135;49.184;9.722;2023-05-07T04:20:18;3.65;;;2.70;;
8187;SDS011;4135;49.184;9.722;2023-05-07T04:22:47;4.97;;;2.58;;
8187;SDS011;4135;49.184;9.722;2023-05-07T04:25:17;4.18;;;2.53;;
8187;SDS011;4135;49.184;9.722;2023-05-07T04:27:46;5.65;;;2.75;;
8187;SDS011;4135;49.184;9.722;2023-05-07T04:30:17;5.57;;;2.42;;
8187;SDS011;4135;49.184;9.722;2023-05-07T04:32:47;7.18;;;2.55;;
8187;SDS011;4135;49.184;9.722;2023-05-07T04:35:17;4.18;;;2.47;;
8187;SDS011;4135;49.184;9.722;2023-05-07T04:37:46;7.68;;;2.63;;
8187;SDS011;4135;49.184;9.722;2023-05-07T04:40:16;4.05;;;2.03;;
8187;SDS011;4135;49.184;9.722;2023-05-07T04:42:46;4.70;;;2.67;;
8187;SDS011;4135;49.184;9.722;2023-05-07T04:45:15;9.68;;;3.20;;
8187;SDS011;4135;49.184;9.722;2023-05-07T04:47:45;3.97;;;2.58;;
8187;SDS011;4135;49.184;9.722;2023-05-07T04:50:14;9.80;;;3.08;;
8187;SDS011;4135;49.184;9.722;2023-05-07T04:52:44;5.00;;;2.67;;
8187;SDS011;4135;49.184;9.722;2023-05-07T04:55:14;11.95;;;2.58;;
8187;SDS011;4135;49.184;9.722;2023-05-07T04:57:43;4.25;;;2.63;;
8187;SDS011;4135;49.184;9.722;2023-05-07T05:00:14;5.00;;;2.97;;
8187;SDS011;4135;49.184;9.722;2023-05-07T05:02:44;3.95;;;2.55;;
8187;SDS011;4135;49.184;9.722;2023-05-07T05:05:13;8.00;;;2.67;;
8187;SDS011;4135;49.184;9.722;2023-05-07T05:07:43;3.75;;;2.85;;
8187;SDS011;4135;49.184;9.722;2023-05-07T05:10:12;3.75;;;2.92;;
8187;SDS011;4135;49.184;9.722;2023-05-07T05:12:42;5.15;;;2.80;;
8187;SDS011;4135;49.184;9.722;2023-05-07T05:15:12;5.43;;;3.15;;
8187;SDS011;4135;49.184;9.722;2023-05-07T05:17:41;7.03;;;3.70;;
8187;SDS011;4135;49.184;9.722;2023-05-07T05:20:11;6.50;;;3.50;;
8187;SDS011;4135;49.184;9.722;2023-05-07T05:22:41;3.90;;;2.88;;
8187;SDS011;4135;49.184;9.722;2023-05-07T05:25:11;4.53;;;3.20;;
8187;SDS011;4135;49.184;9.722;2023-05-07T05:27:40;5.07;;;3.25;;
8187;SDS011;4135;49.184;9.722;2023-05-07T05:30:10;3.95;;;2.70;;
8187;SDS011;4135;49.184;9.722;2023-05-07T05:32:40;6.75;;;2.78;;
8187;SDS011;4135;49.184;9.722;2023-05-07T05:35:09;3.75;;;2.58;;
8187;SDS011;4135;49.184;9.722;2023-05-07T05:37:39;4.22;;;2.70;;
8187;SDS011;4135;49.184;9.722;2023-05-07T05:40:08;3.08;;;2.50;;
8187;SDS011;4135;49.184;9.722;2023-05-07T05:42:38;8.13;;;2.75;;
8187;SDS011;4135;49.184;9.722;2023-05-07T05:45:08;2.70;;;2.20;;
8187;SDS011;4135;49.184;9.722;2023-05-07T05:47:38;7.00;;;2.40;;
8187;SDS011;4135;49.184;9.722;2023-05-07T05:50:08;5.47;;;2.60;;
8187;SDS011;4135;49.184;9.722;2023-05-07T05:52:38;5.75;;;2.58;;
8187;SDS011;4135;49.184;9.722;2023-05-07T05:55:07;3.65;;;2.40;;
8187;SDS011;4135;49.184;9.722;2023-05-07T05:57:37;3.58;;;1.55;;
8187;SDS011;4135;49.184;9.722;2023-05-07T06:00:07;3.50;;;2.05;;
8187;SDS011;4135;49.184;9.722;2023-05-07T06:02:37;4.05;;;2.28;;
8187;SDS011;4135;49.184;9.722;2023-05-07T06:05:07;3.97;;;2.30;;
8187;SDS011;4135;49.184;9.722;2023-05-07T06:07:37;3.30;;;2.13;;
8187;SDS011;4135;49.184;9.722;2023-05-07T06:10:07;3.00;;;1.80;;
8187;SDS011;4135;49.184;9.722;2023-05-07T06:12:36;6.43;;;2.38;;
8187;SDS011;4135;49.184;9.722;2023-05-07T06:15:06;10.80;;;3.05;;
8187;SDS011;4135;49.184;9.722;2023-05-07T06:17:36;5.45;;;2.20;;
8187;SDS011;4135;49.184;9.722;2023-05-07T06:20:05;3.97;;;2.47;;
8187;SDS011;4135;49.184;9.722;2023-05-07T06:22:35;4.93;;;2.85;;
8187;SDS011;4135;49.184;9.722;2023-05-07T06:25:05;3.97;;;2.22;;
8187;SDS011;4135;49.184;9.722;2023-05-07T06:27:35;6.90;;;2.95;;
8187;SDS011;4135;49.184;9.722;2023-05-07T06:30:05;5.25;;;3.00;;
8187;SDS011;4135;49.184;9.722;2023-05-07T06:32:36;6.95;;;3.35;;
8187;SDS011;4135;49.184;9.722;2023-05-07T06:35:05;4.80;;;2.80;;
8187;SDS011;4135;49.184;9.722;2023-05-07T06:37:35;5.53;;;2.78;;
8187;SDS011;4135;49.184;9.722;2023-05-07T06:40:07;4.10;;;3.10;;
8187;SDS011;4135;49.184;9.722;2023-05-07T06:42:37;8.65;;;2.88;;
8187;SDS011;4135;49.184;9.722;2023-05-07T06:45:07;3.80;;;2.58;;
8187;SDS011;4135;49.184;9.722;2023-05-07T06:47:37;5.50;;;2.85;;
8187;SDS011;4135;49.184;9.722;2023-05-07T06:50:07;5.28;;;3.10;;
8187;SDS011;4135;49.184;9.722;2023-05-07T06:52:37;5.10;;;2.78;;
8187;SDS011;4135;49.184;9.722;2023-05-07T06:55:07;3.75;;;2.30;;
8187;SDS011;4135;49.184;9.722;2023-05-07T06:57:37;4.82;;;2.47;;
8187;SDS011;4135;49.184;9.722;2023-05-07T07:00:07;6.05;;;2.65;;
8187;SDS011;4135;49.184;9.722;2023-05-07T07:02:38;6.10;;;2.95;;
8187;SDS011;4135;49.184;9.722;2023-05-07T07:05:08;4.00;;;2.53;;
8187;SDS011;4135;49.184;9.722;2023-05-07T07:07:38;5.53;;;2.65;;
8187;SDS011;4135;49.184;9.722;2023-05-07T07:10:07;2.67;;;2.42;;
8187;SDS011;4135;49.184;9.722;2023-05-07T07:12:37;4.65;;;2.40;;
8187;SDS011;4135;49.184;9.722;2023-05-07T07:15:07;7.78;;;2.75;;
8187;SDS011;4135;49.184;9.722;2023-05-07T07:17:36;6.03;;;3.13;;
8187;SDS011;4135;49.184;9.722;2023-05-07T07:20:06;6.88;;;3.38;;
8187;SDS011;4135;49.184;9.722;2023-05-07T07:22:36;4.68;;;2.90;;
8187;SDS011;4135;49.184;9.722;2023-05-07T07:25:06;6.63;;;3.22;;
8187;SDS011;4135;49.184;9.722;2023-05-07T07:27:35;6.28;;;3.97;;
8187;SDS011;4135;49.184;9.722;2023-05-07T07:30:05;5.20;;;3.70;;
8187;SDS011;4135;49.184;9.722;2023-05-07T07:32:35;5.03;;;3.25;;
8187;SDS011;4135;49.184;9.722;2023-05-07T07:35:05;5.18;;;3.28;;
8187;SDS011;4135;49.184;9.722;2023-05-07T07:37:35;6.40;;;3.65;;
8187;SDS011;4135;49.184;9.722;2023-05-07T07:40:05;6.05;;;3.85;;
8187;SDS011;4135;49.184;9.722;2023-05-07T07:42:35;3.58;;;3.17;;
8187;SDS011;4135;49.184;9.722;2023-05-07T07:45:04;5.85;;;3.38;;
8187;SDS011;4135;49.184;9.722;2023-05-07T07:47:34;6.40;;;3.45;;
8187;SDS011;4135;49.184;9.722;2023-05-07T07:50:04;3.38;;;2.65;;
8187;SDS011;4135;49.184;9.722;2023-05-07T07:52:34;3.75;;;3.10;;
8187;SDS011;4135;49.184;9.722;2023-05-07T07:55:04;3.38;;;2.67;;
8187;SDS011;4135;49.184;9.722;2023-05-07T07:57:34;3.75;;;3.10;;
8187;SDS011;4135;49.184;9.722;2023-05-07T08:00:04;5.90;;;3.10;;
8187;SDS011;4135;49.184;9.722;2023-05-07T08:02:35;4.30;;;2.78;;
8187;SDS011;4135;49.184;9.722;2023-05-07T08:05:04;4.15;;;3.00;;
8187;SDS011;4135;49.184;9.722;2023-05-07T08:07:34;3.50;;;2.35;;
8187;SDS011;4135;49.184;9.722;2023-05-07T08:10:03;4.28;;;2.85;;
8187;SDS011;4135;49.184;9.722;2023-05-07T08:12:33;3.80;;;2.65;;
8187;SDS011;4135;49.184;9.722;2023-05-07T08:15:03;5.40;;;2.75;;
8187;SDS011;4135;49.184;9.722;2023-05-07T08:17:32;4.07;;;2.70;;
8187;SDS011;4135;49.184;9.722;2023-05-07T08:20:02;4.82;;;3.47;;
8187;SDS011;4135;49.184;9.722;2023-05-07T08:22:32;4.65;;;2.72;;
8187;SDS011;4135;49.184;9.722;2023-05-07T08:25:02;3.60;;;2.40;;
8187;SDS011;4135;49.184;9.722;2023-05-07T08:27:32;3.03;;;2.65;;
8187;SDS011;4135;49.184;9.722;2023-05-07T08:30:02;3.47;;;2.50;;
8187;SDS011;4135;49.184;9.722;2023-05-07T08:32:32;5.45;;;2.60;;
8187;SDS011;4135;49.184;9.722;2023-05-07T08:35:02;3.95;;;2.58;;
8187;SDS011;4135;49.184;9.722;2023-05-07T08:37:32;3.92;;;2.80;;
8187;SDS011;4135;49.184;9.722;2023-05-07T08:40:01;8.48;;;3.08;;
8187;SDS011;4135;49.184;9.722;2023-05-07T08:42:31;2.90;;;2.58;;
8187;SDS011;4135;49.184;9.722;2023-05-07T08:45:09;4.18;;;3.08;;
8187;SDS011;4135;49.184;9.722;2023-05-07T08:47:42;2.97;;;2.65;;
8187;SDS011;4135;49.184;9.722;2023-05-07T08:50:15;3.42;;;2.80;;
8187;SDS011;4135;49.184;9.722;2023-05-07T08:52:45;7.05;;;1.70;;
8187;SDS011;4135;49.184;9.722;2023-05-07T08:55:15;3.13;;;1.67;;
8187;SDS011;4135;49.184;9.722;2023-05-07T08:57:46;3.30;;;1.98;;
8187;SDS011;4135;49.184;9.722;2023-05-07T09:00:16;3.58;;;1.80;;
8187;SDS011;4135;49.184;9.722;2023-05-07T09:02:46;2.30;;;1.88;;
8187;SDS011;4135;49.184;9.722;2023-05-07T09:05:16;4.25;;;2.55;;
8187;SDS011;4135;49.184;9.722;2023-05-07T09:07:45;2.25;;;1.77;;
8187;SDS011;4135;49.184;9.722;2023-05-07T09:10:15;5.55;;;2.03;;
8187;SDS011;4135;49.184;9.722;2023-05-07T09:12:46;3.95;;;1.63;;
8187;SDS011;4135;49.184;9.722;2023-05-07T09:15:16;1.70;;;1.45;;
8187;SDS011;4135;49.184;9.722;2023-05-07T09:17:47;3.50;;;2.00;;
8187;SDS011;4135;49.184;9.722;2023-05-07T09:20:16;2.42;;;2.28;;
8187;SDS011;4135;49.184;9.722;2023-05-07T09:22:46;1.90;;;1.40;;
8187;SDS011;4135;49.184;9.722;2023-05-07T09:25:15;3.28;;;1.67;;
8187;SDS011;4135;49.184;9.722;2023-05-07T09:27:58;2.50;;;1.75;;
8187;SDS011;4135;49.184;9.722;2023-05-07T09:30:29;1.92;;;1.33;;
8187;SDS011;4135;49.184;9.722;2023-05-07T09:33:01;2.38;;;1.52;;
8187;SDS011;4135;49.184;9.722;2023-05-07T09:35:32;2.33;;;1.33;;
8187;SDS011;4135;49.184;9.722;2023-05-07T09:38:01;1.58;;;1.33;;
8187;SDS011;4135;49.184;9.722;2023-05-07T09:40:31;1.30;;;1.23;;
8187;SDS011;4135;49.184;9.722;2023-05-07T09:43:08;1.98;;;1.42;;
8187;SDS011;4135;49.184;9.722;2023-05-07T09:45:39;1.70;;;1.23;;
8187;SDS011;4135;49.184;9.722;2023-05-07T09:48:10;1.15;;;0.85;;
8187;SDS011;4135;49.184;9.722;2023-05-07T09:50:44;2.10;;;1.02;;
8187;SDS011;4135;49.184;9.722;2023-05-07T09:53:18;2.90;;;1.27;;
8187;SDS011;4135;49.184;9.722;2023-05-07T09:55:48;1.08;;;0.95;;
8187;SDS011;4135;49.184;9.722;2023-05-07T09:58:19;2.05;;;1.55;;
8187;SDS011;4135;49.184;9.722;2023-05-07T10:00:52;1.60;;;1.40;;
8187;SDS011;4135;49.184;9.722;2023-05-07T10:03:21;2.55;;;1.27;;
8187;SDS011;4135;49.184;9.722;2023-05-07T10:05:53;5.22;;;1.20;;
8187;SDS011;4135;49.184;9.722;2023-05-07T10:08:23;2.95;;;1.33;;
8187;SDS011;4135;49.184;9.722;2023-05-07T10:10:53;2.05;;;1.05;;
8187;SDS011;4135;49.184;9.722;2023-05-07T10:13:22;1.70;;;0.82;;
8187;SDS011;4135;49.184;9.722;2023-05-07T10:15:53;1.17;;;1.00;;
8187;SDS011;4135;49.184;9.722;2023-05-07T10:18:23;2.15;;;1.23;;
8187;SDS011;4135;49.184;9.722;2023-05-07T10:21:04;5.60;;;1.55;;
8187;SDS011;4135;49.184;9.722;2023-05-07T10:23:50;2.42;;;1.40;;
8187;SDS011;4135;49.184;9.722;2023-05-07T10:26:22;1.60;;;1.10;;
8187;SDS011;4135;49.184;9.722;2023-05-07T10:28:56;1.23;;;0.90;;
8187;SDS011;4135;49.184;9.722;2023-05-07T10:31:46;1.63;;;1.17;;
8187;SDS011;4135;49.184;9.722;2023-05-07T10:34:36;1.95;;;0.93;;
8187;SDS011;4135;49.184;9.722;2023-05-07T10:37:09;1.05;;;0.98;;
8187;SDS011;4135;49.184;9.722;2023-05-07T10:39:40;4.10;;;1.10;;
8187;SDS011;4135;49.184;9.722;2023-05-07T10:42:10;4.93;;;1.65;;
8187;SDS011;4135;49.184;9.722;2023-05-07T10:44:42;2.78;;;1.73;;
8187;SDS011;4135;49.184;9.722;2023-05-07T10:47:12;1.33;;;0.90;;
8187;SDS011;4135;49.184;9.722;2023-05-07T10:54:47;1.95;;;1.10;;
8187;SDS011;4135;49.184;9.722;2023-05-07T10:57:36;2.67;;;1.15;;
8187;SDS011;4135;49.184;9.722;2023-05-07T11:05:30;1.77;;;1.15;;
8187;SDS011;4135;49.184;9.722;2023-05-07T11:08:01;1.40;;;1.30;;
8187;SDS011;4135;49.184;9.722;2023-05-07T11:10:48;2.65;;;1.33;;
8187;SDS011;4135;49.184;9.722;2023-05-07T11:13:42;1.27;;;1.13;;
8187;SDS011;4135;49.184;9.722;2023-05-07T11:18:47;2.88;;;1.35;;
8187;SDS011;4135;49.184;9.722;2023-05-07T11:24:20;7.32;;;1.90;;
8187;SDS011;4135;49.184;9.722;2023-05-07T11:26:51;2.85;;;1.50;;
8187;SDS011;4135;49.184;9.722;2023-05-07T11:29:21;3.65;;;1.45;;
8187;SDS011;4135;49.184;9.722;2023-05-07T11:31:51;2.33;;;1.10;;
8187;SDS011;4135;49.184;9.722;2023-05-07T11:34:23;2.55;;;1.50;;
8187;SDS011;4135;49.184;9.722;2023-05-07T11:36:54;1.77;;;1.17;;
8187;SDS011;4135;49.184;9.722;2023-05-07T11:39:28;2.25;;;1.52;;
8187;SDS011;4135;49.184;9.722;2023-05-07T11:42:02;1.88;;;1.10;;
8187;SDS011;4135;49.184;9.722;2023-05-07T11:44:41;2.22;;;1.55;;
8187;SDS011;4135;49.184;9.722;2023-05-07T11:47:16;2.72;;;1.33;;
8187;SDS011;4135;49.184;9.722;2023-05-07T11:49:50;3.08;;;1.33;;
8187;SDS011;4135;49.184;9.722;2023-05-07T11:52:24;1.77;;;1.63;;
8187;SDS011;4135;49.184;9.722;2023-05-07T11:54:54;7.72;;;1.30;;
8187;SDS011;4135;49.184;9.722;2023-05-07T11:57:25;2.00;;;1.30;;
8187;SDS011;4135;49.184;9.722;2023-05-07T11:59:56;2.47;;;1.42;;
8187;SDS011;4135;49.184;9.722;2023-05-07T12:02:26;1.73;;;1.38;;
8187;SDS011;4135;49.184;9.722;2023-05-07T12:04:57;1.67;;;1.30;;
8187;SDS011;4135;49.184;9.722;2023-05-07T12:07:29;2.20;;;1.35;;
8187;SDS011;4135;49.184;9.722;2023-05-07T12:09:58;1.02;;;1.00;;
8187;SDS011;4135;49.184;9.722;2023-05-07T12:12:28;1.85;;;1.30;;
8187;SDS011;4135;49.184;9.722;2023-05-07T12:14:57;3.15;;;1.33;;
8187;SDS011;4135;49.184;9.722;2023-05-07T12:17:27;2.72;;;1.48;;
8187;SDS011;4135;49.184;9.722;2023-05-07T12:19:57;1.83;;;1.25;;
8187;SDS011;4135;49.184;9.722;2023-05-07T12:22:26;1.30;;;1.10;;
8187;SDS011;4135;49.184;9.722;2023-05-07T12:24:57;2.28;;;1.23;;
8187;SDS011;4135;49.184;9.722;2023-05-07T12:27:27;4.18;;;1.92;;
8187;SDS011;4135;49.184;9.722;2023-05-07T12:29:57;2.22;;;1.60;;
8187;SDS011;4135;49.184;9.722;2023-05-07T12:32:27;3.08;;;1.45;;
8187;SDS011;4135;49.184;9.722;2023-05-07T12:34:57;1.45;;;1.38;;
8187;SDS011;4135;49.184;9.722;2023-05-07T12:37:27;3.78;;;1.80;;
8187;SDS011;4135;49.184;9.722;2023-05-07T12:40:06;3.30;;;1.60;;
8187;SDS011;4135;49.184;9.722;2023-05-07T12:42:40;2.08;;;1.40;;
8187;SDS011;4135;49.184;9.722;2023-05-07T12:45:11;5.90;;;1.70;;
8187;SDS011;4135;49.184;9.722;2023-05-07T12:47:44;2.15;;;1.27;;
8187;SDS011;4135;49.184;9.722;2023-05-07T12:50:15;1.80;;;1.70;;
8187;SDS011;4135;49.184;9.722;2023-05-07T12:52:45;4.68;;;1.40;;
8187;SDS011;4135;49.184;9.722;2023-05-07T12:55:17;4.10;;;1.58;;
8187;SDS011;4135;49.184;9.722;2023-05-07T12:57:49;1.65;;;1.50;;
8187;SDS011;4135;49.184;9.722;2023-05-07T13:00:41;3.03;;;1.40;;
8187;SDS011;4135;49.184;9.722;2023-05-07T13:03:10;2.00;;;1.63;;
8187;SDS011;4135;49.184;9.722;2023-05-07T13:05:40;1.58;;;1.48;;
8187;SDS011;4135;49.184;9.722;2023-05-07T13:08:10;1.85;;;1.48;;
8187;SDS011;4135;49.184;9.722;2023-05-07T13:10:39;4.10;;;2.42;;
8187;SDS011;4135;49.184;9.722;2023-05-07T13:13:09;2.45;;;1.92;;
8187;SDS011;4135;49.184;9.722;2023-05-07T13:15:38;3.50;;;2.17;;
8187;SDS011;4135;49.184;9.722;2023-05-07T13:18:08;5.00;;;1.80;;
8187;SDS011;4135;49.184;9.722;2023-05-07T13:20:39;3.72;;;2.20;;
8187;SDS011;4135;49.184;9.722;2023-05-07T13:23:09;12.50;;;2.05;;
8187;SDS011;4135;49.184;9.722;2023-05-07T13:25:39;5.25;;;2.35;;
8187;SDS011;4135;49.184;9.722;2023-05-07T13:28:08;3.08;;;1.90;;
8187;SDS011;4135;49.184;9.722;2023-05-07T13:30:38;7.10;;;1.83;;
8187;SDS011;4135;49.184;9.722;2023-05-07T13:33:08;1.98;;;1.77;;
8187;SDS011;4135;49.184;9.722;2023-05-07T13:35:38;2.67;;;2.22;;
8187;SDS011;4135;49.184;9.722;2023-05-07T13:38:07;4.72;;;1.92;;
8187;SDS011;4135;49.184;9.722;2023-05-07T13:40:37;2.85;;;2.50;;
8187;SDS011;4135;49.184;9.722;2023-05-07T13:43:07;5.55;;;2.55;;
8187;SDS011;4135;49.184;9.722;2023-05-07T13:45:36;2.85;;;2.20;;
8187;SDS011;4135;49.184;9.722;2023-05-07T13:48:06;8.60;;;2.58;;
8187;SDS011;4135;49.184;9.722;2023-05-07T13:50:35;3.15;;;2.78;;
8187;SDS011;4135;49.184;9.722;2023-05-07T13:53:05;1.75;;;1.70;;
8187;SDS011;4135;49.184;9.722;2023-05-07T13:55:34;2.80;;;2.22;;
8187;SDS011;4135;49.184;9.722;2023-05-07T13:58:04;2.55;;;2.33;;
8187;SDS011;4135;49.184;9.722;2023-05-07T14:00:34;2.35;;;1.80;;
8187;SDS011;4135;49.184;9.722;2023-05-07T14:03:04;4.13;;;2.15;;
8187;SDS011;4135;49.184;9.722;2023-05-07T14:05:34;4.13;;;2.30;;
8187;SDS011;4135;49.184;9.722;2023-05-07T14:08:04;3.00;;;2.05;;
8187;SDS011;4135;49.184;9.722;2023-05-07T14:10:34;4.13;;;2.25;;
8187;SDS011;4135;49.184;9.722;2023-05-07T14:13:04;2.88;;;2.42;;
8187;SDS011;4135;49.184;9.722;2023-05-07T14:15:33;2.88;;;1.85;;
8187;SDS011;4135;49.184;9.722;2023-05-07T14:18:03;5.00;;;2.63;;
8187;SDS011;4135;49.184;9.722;2023-05-07T14:20:32;5.93;;;2.20;;
8187;SDS011;4135;49.184;9.722;2023-05-07T14:23:02;3.25;;;2.72;;
8187;SDS011;4135;49.184;9.722;2023-05-07T14:25:31;2.78;;;2.53;;
8187;SDS011;4135;49.184;9.722;2023-05-07T14:28:01;4.68;;;2.75;;
8187;SDS011;4135;49.184;9.722;2023-05-07T14:30:30;3.65;;;2.33;;
8187;SDS011;4135;49.184;9.722;2023-05-07T14:33:00;3.25;;;2.00;;
8187;SDS011;4135;49.184;9.722;2023-05-07T14:35:29;6.30;;;2.50;;
8187;SDS011;4135;49.184;9.722;2023-05-07T14:37:59;4.55;;;2.78;;
8187;SDS011;4135;49.184;9.722;2023-05-07T14:40:28;8.88;;;2.50;;
8187;SDS011;4135;49.184;9.722;2023-05-07T14:42:58;3.55;;;2.15;;
8187;SDS011;4135;49.184;9.722;2023-05-07T14:45:27;4.03;;;2.72;;
8187;SDS011;4135;49.184;9.722;2023-05-07T14:47:57;2.85;;;2.60;;
8187;SDS011;4135;49.184;9.722;2023-05-07T14:50:26;6.43;;;3.00;;
8187;SDS011;4135;49.184;9.722;2023-05-07T14:52:56;4.38;;;2.38;;
8187;SDS011;4135;49.184;9.722;2023-05-07T14:55:26;3.60;;;2.67;;
8187;SDS011;4135;49.184;9.722;2023-05-07T14:57:55;2.65;;;2.20;;
8187;SDS011;4135;49.184;9.722;2023-05-07T15:00:25;7.13;;;2.97;;
8187;SDS011;4135;49.184;9.722;2023-05-07T15:02:55;17.05;;;4.03;;
8187;SDS011;4135;49.184;9.722;2023-05-07T15:05:34;5.78;;;2.63;;
8187;SDS011;4135;49.184;9.722;2023-05-07T15:08:04;3.58;;;3.05;;
8187;SDS011;4135;49.184;9.722;2023-05-07T15:10:35;10.02;;;2.90;;
8187;SDS011;4135;49.184;9.722;2023-05-07T15:13:09;5.70;;;2.88;;
8187;SDS011;4135;49.184;9.722;2023-05-07T15:15:41;4.10;;;2.47;;
8187;SDS011;4135;49.184;9.722;2023-05-07T15:18:12;2.60;;;2.22;;
8187;SDS011;4135;49.184;9.722;2023-05-07T15:20:43;7.15;;;2.63;;
8187;SDS011;4135;49.184;9.722;2023-05-07T15:23:12;2.13;;;1.73;;
8187;SDS011;4135;49.184;9.722;2023-05-07T15:25:42;4.93;;;2.47;;
8187;SDS011;4135;49.184;9.722;2023-05-07T15:28:12;4.40;;;1.95;;
8187;SDS011;4135;49.184;9.722;2023-05-07T15:30:41;4.32;;;1.85;;
8187;SDS011;4135;49.184;9.722;2023-05-07T15:33:11;2.75;;;1.20;;
8187;SDS011;4135;49.184;9.722;2023-05-07T15:35:41;3.00;;;1.80;;
8187;SDS011;4135;49.184;9.722;2023-05-07T15:38:10;2.13;;;1.65;;
8187;SDS011;4135;49.184;9.722;2023-05-07T15:40:41;1.30;;;1.20;;
8187;SDS011;4135;49.184;9.722;2023-05-07T15:43:11;3.22;;;1.25;;
8187;SDS011;4135;49.184;9.722;2023-05-07T15:45:41;7.22;;;1.38;;
8187;SDS011;4135;49.184;9.722;2023-05-07T15:48:11;3.08;;;1.17;;
8187;SDS011;4135;49.184;9.722;2023-05-07T15:50:41;2.92;;;1.27;;